sensor_id;sensor_type;location;lat;lon;timestamp;P1;durP1;ratioP1;P2;durP2;ratioP2
2177;SDS011;1095;50.992;6.798;2023-03-03T00:00:10;70.10;;;37.00;;
2177;SDS011;1095;50.992;6.798;2023-03-03T00:02:37;71.97;;;36.90;;
2177;SDS011;1095;50.992;6.798;2023-03-03T00:05:06;71.43;;;37.47;;
2177;SDS011;1095;50.992;6.798;2023-03-03T00:07:33;72.53;;;36.55;;
2177;SDS011;1095;50.992;6.798;2023-03-03T00:09:59;71.57;;;38.15;;
2177;SDS011;1095;50.992;6.798;2023-03-03T00:12:29;69.15;;;37.63;;
2177;SDS011;1095;50.992;6.798;2023-03-03T00:14:56;70.20;;;37.63;;
2177;SDS011;1095;50.992;6.798;2023-03-03T00:17:25;76.13;;;38.25;;
2177;SDS011;1095;50.992;6.798;2023-03-03T00:19:53;75.32;;;41.03;;
2177;SDS011;1095;50.992;6.798;2023-03-03T00:22:23;79.00;;;41.05;;
2177;SDS011;1095;50.992;6.798;2023-03-03T00:24:57;75.53;;;39.78;;
2177;SDS011;1095;50.992;6.798;2023-03-03T00:27:26;74.75;;;39.88;;
2177;SDS011;1095;50.992;6.798;2023-03-03T00:29:56;71.55;;;39.08;;
2177;SDS011;1095;50.992;6.798;2023-03-03T00:32:26;76.60;;;39.65;;
2177;SDS011;1095;50.992;6.798;2023-03-03T00:34:59;75.47;;;39.93;;
2177;SDS011;1095;50.992;6.798;2023-03-03T00:37:42;74.32;;;40.10;;
2177;SDS011;1095;50.992;6.798;2023-03-03T00:40:12;76.10;;;40.00;;
2177;SDS011;1095;50.992;6.798;2023-03-03T00:42:48;72.05;;;39.80;;
2177;SDS011;1095;50.992;6.798;2023-03-03T00:45:23;74.10;;;38.75;;
2177;SDS011;1095;50.992;6.798;2023-03-03T00:47:55;81.07;;;39.30;;
2177;SDS011;1095;50.992;6.798;2023-03-03T00:50:32;78.60;;;40.80;;
2177;SDS011;1095;50.992;6.798;2023-03-03T00:53:06;56.38;;;30.65;;
2177;SDS011;1095;50.992;6.798;2023-03-03T00:55:36;74.47;;;38.67;;
2177;SDS011;1095;50.992;6.798;2023-03-03T00:58:03;75.35;;;39.10;;
2177;SDS011;1095;50.992;6.798;2023-03-03T01:00:30;75.00;;;38.88;;
2177;SDS011;1095;50.992;6.798;2023-03-03T01:03:03;85.53;;;41.53;;
2177;SDS011;1095;50.992;6.798;2023-03-03T01:05:31;79.88;;;39.08;;
2177;SDS011;1095;50.992;6.798;2023-03-03T01:07:58;83.15;;;41.65;;
2177;SDS011;1095;50.992;6.798;2023-03-03T01:10:28;79.70;;;40.03;;
2177;SDS011;1095;50.992;6.798;2023-03-03T01:12:57;81.15;;;40.53;;
2177;SDS011;1095;50.992;6.798;2023-03-03T01:15:24;86.95;;;42.30;;
2177;SDS011;1095;50.992;6.798;2023-03-03T01:17:51;86.95;;;42.47;;
2177;SDS011;1095;50.992;6.798;2023-03-03T01:20:19;85.25;;;41.65;;
2177;SDS011;1095;50.992;6.798;2023-03-03T01:22:46;83.97;;;42.88;;
2177;SDS011;1095;50.992;6.798;2023-03-03T01:25:12;85.40;;;41.75;;
2177;SDS011;1095;50.992;6.798;2023-03-03T01:27:39;84.65;;;42.97;;
2177;SDS011;1095;50.992;6.798;2023-03-03T01:30:06;85.35;;;41.10;;
2177;SDS011;1095;50.992;6.798;2023-03-03T01:32:34;92.32;;;43.42;;
2177;SDS011;1095;50.992;6.798;2023-03-03T01:35:01;85.72;;;42.17;;
2177;SDS011;1095;50.992;6.798;2023-03-03T01:37:29;87.82;;;42.65;;
2177;SDS011;1095;50.992;6.798;2023-03-03T01:39:55;86.82;;;42.13;;
2177;SDS011;1095;50.992;6.798;2023-03-03T01:42:22;96.53;;;43.90;;
2177;SDS011;1095;50.992;6.798;2023-03-03T01:45:07;85.13;;;40.88;;
2177;SDS011;1095;50.992;6.798;2023-03-03T01:47:38;89.88;;;42.97;;
2177;SDS011;1095;50.992;6.798;2023-03-03T01:50:11;95.32;;;42.95;;
2177;SDS011;1095;50.992;6.798;2023-03-03T01:52:42;95.45;;;44.15;;
2177;SDS011;1095;50.992;6.798;2023-03-03T01:55:13;86.63;;;41.53;;
2177;SDS011;1095;50.992;6.798;2023-03-03T01:57:44;94.88;;;44.08;;
2177;SDS011;1095;50.992;6.798;2023-03-03T02:00:16;92.43;;;44.28;;
2177;SDS011;1095;50.992;6.798;2023-03-03T02:02:49;94.03;;;44.42;;
2177;SDS011;1095;50.992;6.798;2023-03-03T02:05:17;92.85;;;44.90;;
2177;SDS011;1095;50.992;6.798;2023-03-03T02:07:47;91.05;;;44.08;;
2177;SDS011;1095;50.992;6.798;2023-03-03T02:10:35;94.93;;;43.72;;
2177;SDS011;1095;50.992;6.798;2023-03-03T02:15:31;98.30;;;41.63;;
2177;SDS011;1095;50.992;6.798;2023-03-03T02:18:01;93.97;;;43.08;;
2177;SDS011;1095;50.992;6.798;2023-03-03T02:20:33;97.32;;;44.28;;
2177;SDS011;1095;50.992;6.798;2023-03-03T02:23:12;95.55;;;42.72;;
2177;SDS011;1095;50.992;6.798;2023-03-03T02:25:45;98.95;;;45.00;;
2177;SDS011;1095;50.992;6.798;2023-03-03T02:28:18;98.22;;;43.63;;
2177;SDS011;1095;50.992;6.798;2023-03-03T02:30:46;104.43;;;44.65;;
2177;SDS011;1095;50.992;6.798;2023-03-03T02:33:15;100.20;;;45.22;;
2177;SDS011;1095;50.992;6.798;2023-03-03T02:35:41;104.88;;;44.65;;
2177;SDS011;1095;50.992;6.798;2023-03-03T02:38:18;103.68;;;44.88;;
2177;SDS011;1095;50.992;6.798;2023-03-03T02:40:50;97.90;;;43.30;;
2177;SDS011;1095;50.992;6.798;2023-03-03T02:43:27;98.07;;;44.83;;
2177;SDS011;1095;50.992;6.798;2023-03-03T02:45:59;96.40;;;44.15;;
2177;SDS011;1095;50.992;6.798;2023-03-03T02:48:25;97.72;;;42.92;;
2177;SDS011;1095;50.992;6.798;2023-03-03T02:50:52;88.20;;;41.80;;
2177;SDS011;1095;50.992;6.798;2023-03-03T02:53:18;98.10;;;42.22;;
2177;SDS011;1095;50.992;6.798;2023-03-03T02:55:45;93.25;;;42.92;;
2177;SDS011;1095;50.992;6.798;2023-03-03T02:58:12;94.75;;;42.58;;
2177;SDS011;1095;50.992;6.798;2023-03-03T03:00:40;96.53;;;43.20;;
2177;SDS011;1095;50.992;6.798;2023-03-03T03:03:06;96.18;;;41.92;;
2177;SDS011;1095;50.992;6.798;2023-03-03T03:05:33;89.68;;;40.47;;
2177;SDS011;1095;50.992;6.798;2023-03-03T03:08:02;93.28;;;40.40;;
2177;SDS011;1095;50.992;6.798;2023-03-03T03:10:29;93.38;;;41.92;;
2177;SDS011;1095;50.992;6.798;2023-03-03T03:12:56;99.70;;;42.35;;
2177;SDS011;1095;50.992;6.798;2023-03-03T03:15:25;97.43;;;42.25;;
2177;SDS011;1095;50.992;6.798;2023-03-03T03:17:57;94.55;;;41.13;;
2177;SDS011;1095;50.992;6.798;2023-03-03T03:20:24;93.43;;;40.55;;
2177;SDS011;1095;50.992;6.798;2023-03-03T03:22:51;88.90;;;37.97;;
2177;SDS011;1095;50.992;6.798;2023-03-03T03:25:18;94.28;;;41.10;;
2177;SDS011;1095;50.992;6.798;2023-03-03T03:27:47;90.28;;;39.30;;
2177;SDS011;1095;50.992;6.798;2023-03-03T03:30:16;89.57;;;40.22;;
2177;SDS011;1095;50.992;6.798;2023-03-03T03:32:44;98.45;;;43.30;;
2177;SDS011;1095;50.992;6.798;2023-03-03T03:35:12;86.60;;;40.92;;
2177;SDS011;1095;50.992;6.798;2023-03-03T03:37:39;93.47;;;39.78;;
2177;SDS011;1095;50.992;6.798;2023-03-03T03:40:06;88.22;;;38.45;;
2177;SDS011;1095;50.992;6.798;2023-03-03T03:42:33;88.20;;;39.50;;
2177;SDS011;1095;50.992;6.798;2023-03-03T03:45:01;87.22;;;38.95;;
2177;SDS011;1095;50.992;6.798;2023-03-03T03:47:28;85.95;;;38.17;;
2177;SDS011;1095;50.992;6.798;2023-03-03T03:49:55;86.38;;;41.28;;
2177;SDS011;1095;50.992;6.798;2023-03-03T03:52:23;90.75;;;39.60;;
2177;SDS011;1095;50.992;6.798;2023-03-03T03:54:49;85.68;;;39.55;;
2177;SDS011;1095;50.992;6.798;2023-03-03T03:57:16;88.82;;;37.75;;
2177;SDS011;1095;50.992;6.798;2023-03-03T03:59:47;86.82;;;38.47;;
2177;SDS011;1095;50.992;6.798;2023-03-03T04:02:14;89.10;;;39.93;;
2177;SDS011;1095;50.992;6.798;2023-03-03T04:07:52;91.40;;;42.33;;
2177;SDS011;1095;50.992;6.798;2023-03-03T04:10:39;87.15;;;38.72;;
2177;SDS011;1095;50.992;6.798;2023-03-03T04:13:08;84.78;;;38.65;;
2177;SDS011;1095;50.992;6.798;2023-03-03T04:15:34;85.35;;;39.33;;
2177;SDS011;1095;50.992;6.798;2023-03-03T04:18:02;92.45;;;39.83;;
2177;SDS011;1095;50.992;6.798;2023-03-03T04:20:31;84.53;;;38.78;;
2177;SDS011;1095;50.992;6.798;2023-03-03T04:23:02;89.35;;;37.22;;
2177;SDS011;1095;50.992;6.798;2023-03-03T04:25:29;88.55;;;40.58;;
2177;SDS011;1095;50.992;6.798;2023-03-03T04:27:55;86.68;;;38.28;;
2177;SDS011;1095;50.992;6.798;2023-03-03T04:30:22;81.82;;;35.90;;
2177;SDS011;1095;50.992;6.798;2023-03-03T04:32:49;85.45;;;34.88;;
2177;SDS011;1095;50.992;6.798;2023-03-03T04:35:20;84.28;;;36.80;;
2177;SDS011;1095;50.992;6.798;2023-03-03T04:37:49;81.38;;;37.33;;
2177;SDS011;1095;50.992;6.798;2023-03-03T04:40:17;88.60;;;38.03;;
2177;SDS011;1095;50.992;6.798;2023-03-03T04:42:44;88.70;;;38.25;;
2177;SDS011;1095;50.992;6.798;2023-03-03T04:45:11;86.80;;;37.40;;
2177;SDS011;1095;50.992;6.798;2023-03-03T04:47:38;94.30;;;39.30;;
2177;SDS011;1095;50.992;6.798;2023-03-03T04:50:05;90.07;;;38.50;;
2177;SDS011;1095;50.992;6.798;2023-03-03T04:52:33;90.30;;;39.00;;
2177;SDS011;1095;50.992;6.798;2023-03-03T04:55:00;92.88;;;38.97;;
2177;SDS011;1095;50.992;6.798;2023-03-03T04:57:28;80.43;;;36.35;;
2177;SDS011;1095;50.992;6.798;2023-03-03T04:59:57;84.60;;;35.72;;
2177;SDS011;1095;50.992;6.798;2023-03-03T05:02:23;85.10;;;37.03;;
2177;SDS011;1095;50.992;6.798;2023-03-03T05:04:50;80.55;;;35.60;;
2177;SDS011;1095;50.992;6.798;2023-03-03T05:07:17;84.88;;;34.97;;
2177;SDS011;1095;50.992;6.798;2023-03-03T05:09:44;85.18;;;35.67;;
2177;SDS011;1095;50.992;6.798;2023-03-03T05:12:11;84.53;;;37.83;;
2177;SDS011;1095;50.992;6.798;2023-03-03T05:14:39;82.03;;;36.50;;
2177;SDS011;1095;50.992;6.798;2023-03-03T05:17:06;82.60;;;36.70;;
2177;SDS011;1095;50.992;6.798;2023-03-03T05:19:33;79.13;;;36.90;;
2177;SDS011;1095;50.992;6.798;2023-03-03T05:22:00;85.03;;;36.80;;
2177;SDS011;1095;50.992;6.798;2023-03-03T05:24:27;82.75;;;34.97;;
2177;SDS011;1095;50.992;6.798;2023-03-03T05:26:53;70.50;;;33.33;;
2177;SDS011;1095;50.992;6.798;2023-03-03T05:29:20;69.25;;;31.42;;
2177;SDS011;1095;50.992;6.798;2023-03-03T05:31:48;75.35;;;33.22;;
2177;SDS011;1095;50.992;6.798;2023-03-03T05:34:15;74.15;;;33.40;;
2177;SDS011;1095;50.992;6.798;2023-03-03T05:36:41;72.40;;;32.25;;
2177;SDS011;1095;50.992;6.798;2023-03-03T05:39:08;63.70;;;29.33;;
2177;SDS011;1095;50.992;6.798;2023-03-03T05:41:35;72.70;;;32.03;;
2177;SDS011;1095;50.992;6.798;2023-03-03T05:44:01;69.63;;;31.52;;
2177;SDS011;1095;50.992;6.798;2023-03-03T05:46:28;70.63;;;31.10;;
2177;SDS011;1095;50.992;6.798;2023-03-03T05:48:56;68.53;;;31.90;;
2177;SDS011;1095;50.992;6.798;2023-03-03T05:51:23;70.43;;;31.05;;
2177;SDS011;1095;50.992;6.798;2023-03-03T05:53:50;71.88;;;31.77;;
2177;SDS011;1095;50.992;6.798;2023-03-03T05:56:16;69.55;;;31.58;;
2177;SDS011;1095;50.992;6.798;2023-03-03T05:58:43;68.85;;;30.83;;
2177;SDS011;1095;50.992;6.798;2023-03-03T06:01:10;63.92;;;31.88;;
2177;SDS011;1095;50.992;6.798;2023-03-03T06:03:36;64.75;;;29.92;;
2177;SDS011;1095;50.992;6.798;2023-03-03T06:06:05;66.95;;;31.25;;
2177;SDS011;1095;50.992;6.798;2023-03-03T06:08:33;66.55;;;29.48;;
2177;SDS011;1095;50.992;6.798;2023-03-03T06:10:59;67.80;;;29.52;;
2177;SDS011;1095;50.992;6.798;2023-03-03T06:13:26;75.45;;;32.90;;
2177;SDS011;1095;50.992;6.798;2023-03-03T06:15:54;65.82;;;31.10;;
2177;SDS011;1095;50.992;6.798;2023-03-03T06:18:21;72.40;;;31.85;;
2177;SDS011;1095;50.992;6.798;2023-03-03T06:20:49;76.63;;;33.25;;
2177;SDS011;1095;50.992;6.798;2023-03-03T06:23:18;67.85;;;31.40;;
2177;SDS011;1095;50.992;6.798;2023-03-03T06:25:45;69.78;;;31.30;;
2177;SDS011;1095;50.992;6.798;2023-03-03T06:28:11;65.68;;;30.60;;
2177;SDS011;1095;50.992;6.798;2023-03-03T06:30:38;66.18;;;29.83;;
2177;SDS011;1095;50.992;6.798;2023-03-03T06:33:05;69.57;;;30.42;;
2177;SDS011;1095;50.992;6.798;2023-03-03T06:35:32;63.88;;;29.63;;
2177;SDS011;1095;50.992;6.798;2023-03-03T06:37:59;65.40;;;30.88;;
2177;SDS011;1095;50.992;6.798;2023-03-03T06:40:27;69.95;;;31.35;;
2177;SDS011;1095;50.992;6.798;2023-03-03T06:42:53;71.95;;;32.40;;
2177;SDS011;1095;50.992;6.798;2023-03-03T06:45:20;66.75;;;29.98;;
2177;SDS011;1095;50.992;6.798;2023-03-03T06:47:47;66.05;;;31.33;;
2177;SDS011;1095;50.992;6.798;2023-03-03T06:50:14;67.03;;;29.73;;
2177;SDS011;1095;50.992;6.798;2023-03-03T06:52:45;63.85;;;29.85;;
2177;SDS011;1095;50.992;6.798;2023-03-03T06:55:12;68.28;;;30.13;;
2177;SDS011;1095;50.992;6.798;2023-03-03T06:57:48;67.88;;;30.60;;
2177;SDS011;1095;50.992;6.798;2023-03-03T07:00:15;65.32;;;30.00;;
2177;SDS011;1095;50.992;6.798;2023-03-03T07:02:44;68.30;;;31.30;;
2177;SDS011;1095;50.992;6.798;2023-03-03T07:05:12;64.55;;;29.45;;
2177;SDS011;1095;50.992;6.798;2023-03-03T07:07:40;64.65;;;30.33;;
2177;SDS011;1095;50.992;6.798;2023-03-03T07:10:21;65.07;;;30.70;;
2177;SDS011;1095;50.992;6.798;2023-03-03T07:12:50;66.32;;;29.80;;
2177;SDS011;1095;50.992;6.798;2023-03-03T07:15:19;64.30;;;29.00;;
2177;SDS011;1095;50.992;6.798;2023-03-03T07:17:48;66.10;;;30.23;;
2177;SDS011;1095;50.992;6.798;2023-03-03T07:20:22;65.38;;;28.88;;
2177;SDS011;1095;50.992;6.798;2023-03-03T07:22:53;60.67;;;27.52;;
2177;SDS011;1095;50.992;6.798;2023-03-03T07:25:31;69.43;;;30.83;;
2177;SDS011;1095;50.992;6.798;2023-03-03T07:28:09;67.47;;;31.02;;
2177;SDS011;1095;50.992;6.798;2023-03-03T07:30:44;63.88;;;29.63;;
2177;SDS011;1095;50.992;6.798;2023-03-03T07:33:14;69.95;;;32.05;;
2177;SDS011;1095;50.992;6.798;2023-03-03T07:35:49;71.55;;;32.25;;
2177;SDS011;1095;50.992;6.798;2023-03-03T07:38:20;71.93;;;32.50;;
2177;SDS011;1095;50.992;6.798;2023-03-03T07:40:51;74.30;;;31.95;;
2177;SDS011;1095;50.992;6.798;2023-03-03T07:43:24;62.83;;;28.75;;
2177;SDS011;1095;50.992;6.798;2023-03-03T07:45:57;65.57;;;30.42;;
2177;SDS011;1095;50.992;6.798;2023-03-03T07:48:29;65.47;;;29.65;;
2177;SDS011;1095;50.992;6.798;2023-03-03T07:51:02;56.30;;;27.17;;
2177;SDS011;1095;50.992;6.798;2023-03-03T07:53:37;68.53;;;27.73;;
2177;SDS011;1095;50.992;6.798;2023-03-03T07:56:06;67.68;;;28.88;;
2177;SDS011;1095;50.992;6.798;2023-03-03T07:58:43;63.63;;;28.77;;
2177;SDS011;1095;50.992;6.798;2023-03-03T08:06:41;61.58;;;28.75;;
2177;SDS011;1095;50.992;6.798;2023-03-03T08:12:09;65.57;;;27.67;;
2177;SDS011;1095;50.992;6.798;2023-03-03T08:15:06;64.68;;;29.20;;
2177;SDS011;1095;50.992;6.798;2023-03-03T08:17:42;64.25;;;28.85;;
2177;SDS011;1095;50.992;6.798;2023-03-03T08:23:11;61.88;;;27.55;;
2177;SDS011;1095;50.992;6.798;2023-03-03T08:25:39;70.80;;;30.77;;
2177;SDS011;1095;50.992;6.798;2023-03-03T08:28:07;69.53;;;31.55;;
2177;SDS011;1095;50.992;6.798;2023-03-03T08:30:37;70.63;;;32.03;;
2177;SDS011;1095;50.992;6.798;2023-03-03T08:33:18;78.00;;;31.35;;
2177;SDS011;1095;50.992;6.798;2023-03-03T08:35:45;68.38;;;31.48;;
2177;SDS011;1095;50.992;6.798;2023-03-03T08:38:19;71.90;;;31.00;;
2177;SDS011;1095;50.992;6.798;2023-03-03T08:40:48;68.88;;;32.50;;
2177;SDS011;1095;50.992;6.798;2023-03-03T08:43:18;64.53;;;28.63;;
2177;SDS011;1095;50.992;6.798;2023-03-03T08:45:48;66.93;;;29.85;;
2177;SDS011;1095;50.992;6.798;2023-03-03T08:48:17;65.07;;;30.25;;
2177;SDS011;1095;50.992;6.798;2023-03-03T08:50:45;66.50;;;29.15;;
2177;SDS011;1095;50.992;6.798;2023-03-03T08:53:15;67.80;;;29.40;;
2177;SDS011;1095;50.992;6.798;2023-03-03T08:55:43;56.72;;;27.45;;
2177;SDS011;1095;50.992;6.798;2023-03-03T08:58:10;55.03;;;26.33;;
2177;SDS011;1095;50.992;6.798;2023-03-03T09:00:38;61.65;;;27.65;;
2177;SDS011;1095;50.992;6.798;2023-03-03T09:03:06;59.83;;;27.52;;
2177;SDS011;1095;50.992;6.798;2023-03-03T09:05:34;57.75;;;25.98;;
2177;SDS011;1095;50.992;6.798;2023-03-03T09:08:03;61.97;;;27.23;;
2177;SDS011;1095;50.992;6.798;2023-03-03T09:10:33;58.90;;;27.35;;
2177;SDS011;1095;50.992;6.798;2023-03-03T09:13:01;63.20;;;28.35;;
2177;SDS011;1095;50.992;6.798;2023-03-03T09:18:04;55.38;;;25.00;;
2177;SDS011;1095;50.992;6.798;2023-03-03T09:20:39;55.13;;;25.70;;
2177;SDS011;1095;50.992;6.798;2023-03-03T09:23:24;55.67;;;25.40;;
2177;SDS011;1095;50.992;6.798;2023-03-03T09:25:55;53.10;;;24.17;;
2177;SDS011;1095;50.992;6.798;2023-03-03T09:28:23;57.20;;;24.83;;
2177;SDS011;1095;50.992;6.798;2023-03-03T09:30:54;58.83;;;26.90;;
2177;SDS011;1095;50.992;6.798;2023-03-03T09:33:26;49.65;;;24.52;;
2177;SDS011;1095;50.992;6.798;2023-03-03T09:35:59;50.55;;;24.35;;
2177;SDS011;1095;50.992;6.798;2023-03-03T09:38:30;45.97;;;22.42;;
2177;SDS011;1095;50.992;6.798;2023-03-03T09:41:06;52.53;;;24.30;;
2177;SDS011;1095;50.992;6.798;2023-03-03T09:43:43;49.17;;;23.00;;
2177;SDS011;1095;50.992;6.798;2023-03-03T09:46:22;59.00;;;25.77;;
2177;SDS011;1095;50.992;6.798;2023-03-03T09:49:03;63.25;;;27.83;;
2177;SDS011;1095;50.992;6.798;2023-03-03T09:51:45;64.45;;;28.95;;
2177;SDS011;1095;50.992;6.798;2023-03-03T10:11:48;62.38;;;27.55;;
2177;SDS011;1095;50.992;6.798;2023-03-03T10:14:30;60.92;;;27.30;;
2177;SDS011;1095;50.992;6.798;2023-03-03T10:17:55;56.60;;;26.10;;
2177;SDS011;1095;50.992;6.798;2023-03-03T10:24:00;64.72;;;28.60;;
2177;SDS011;1095;50.992;6.798;2023-03-03T10:31:21;67.38;;;29.85;;
2177;SDS011;1095;50.992;6.798;2023-03-03T10:38:25;66.70;;;28.05;;
2177;SDS011;1095;50.992;6.798;2023-03-03T10:44:51;75.75;;;29.23;;
2177;SDS011;1095;50.992;6.798;2023-03-03T10:47:57;68.65;;;29.13;;
2177;SDS011;1095;50.992;6.798;2023-03-03T10:54:29;70.15;;;28.58;;
2177;SDS011;1095;50.992;6.798;2023-03-03T10:57:59;69.25;;;27.33;;
2177;SDS011;1095;50.992;6.798;2023-03-03T11:01:10;71.85;;;29.50;;
2177;SDS011;1095;50.992;6.798;2023-03-03T11:07:36;62.58;;;28.20;;
2177;SDS011;1095;50.992;6.798;2023-03-03T11:10:41;62.80;;;27.42;;
2177;SDS011;1095;50.992;6.798;2023-03-03T11:13:52;64.03;;;28.27;;
2177;SDS011;1095;50.992;6.798;2023-03-03T11:16:51;64.50;;;27.52;;
2177;SDS011;1095;50.992;6.798;2023-03-03T11:22:54;69.65;;;30.77;;
2177;SDS011;1095;50.992;6.798;2023-03-03T11:26:08;68.80;;;28.60;;
2177;SDS011;1095;50.992;6.798;2023-03-03T11:29:17;76.00;;;29.33;;
2177;SDS011;1095;50.992;6.798;2023-03-03T11:35:42;62.20;;;28.00;;
2177;SDS011;1095;50.992;6.798;2023-03-03T11:38:58;66.78;;;28.60;;
2177;SDS011;1095;50.992;6.798;2023-03-03T11:51:47;71.28;;;29.70;;
2177;SDS011;1095;50.992;6.798;2023-03-03T12:01:25;61.33;;;26.33;;
2177;SDS011;1095;50.992;6.798;2023-03-03T12:12:04;64.65;;;28.73;;
2177;SDS011;1095;50.992;6.798;2023-03-03T12:32:21;63.35;;;27.33;;
2177;SDS011;1095;50.992;6.798;2023-03-03T12:35:19;68.90;;;28.20;;
2177;SDS011;1095;50.992;6.798;2023-03-03T12:39:06;65.43;;;29.35;;
2177;SDS011;1095;50.992;6.798;2023-03-03T12:44:53;71.88;;;30.42;;
2177;SDS011;1095;50.992;6.798;2023-03-03T12:47:49;75.32;;;31.55;;
2177;SDS011;1095;50.992;6.798;2023-03-03T12:56:44;71.28;;;30.88;;
2177;SDS011;1095;50.992;6.798;2023-03-03T13:06:41;71.13;;;31.40;;
2177;SDS011;1095;50.992;6.798;2023-03-03T13:09:44;71.60;;;31.30;;
2177;SDS011;1095;50.992;6.798;2023-03-03T13:12:40;68.03;;;32.00;;
2177;SDS011;1095;50.992;6.798;2023-03-03T13:15:32;75.10;;;31.85;;
2177;SDS011;1095;50.992;6.798;2023-03-03T13:21:25;75.85;;;32.35;;
2177;SDS011;1095;50.992;6.798;2023-03-03T13:28:30;74.03;;;33.40;;
2177;SDS011;1095;50.992;6.798;2023-03-03T13:31:46;74.05;;;31.90;;
2177;SDS011;1095;50.992;6.798;2023-03-03T13:35:00;74.13;;;32.75;;
2177;SDS011;1095;50.992;6.798;2023-03-03T13:38:22;76.00;;;32.75;;
2177;SDS011;1095;50.992;6.798;2023-03-03T13:48:03;85.57;;;33.72;;
2177;SDS011;1095;50.992;6.798;2023-03-03T13:51:16;75.95;;;32.80;;
2177;SDS011;1095;50.992;6.798;2023-03-03T14:12:56;73.05;;;32.13;;
2177;SDS011;1095;50.992;6.798;2023-03-03T14:15:40;64.55;;;30.75;;
2177;SDS011;1095;50.992;6.798;2023-03-03T14:21:02;62.15;;;29.45;;
2177;SDS011;1095;50.992;6.798;2023-03-03T14:23:46;64.18;;;32.60;;
2177;SDS011;1095;50.992;6.798;2023-03-03T14:26:41;67.90;;;31.90;;
2177;SDS011;1095;50.992;6.798;2023-03-03T14:32:29;62.22;;;28.02;;
2177;SDS011;1095;50.992;6.798;2023-03-03T14:34:58;63.58;;;28.67;;
2177;SDS011;1095;50.992;6.798;2023-03-03T14:37:50;59.75;;;28.02;;
2177;SDS011;1095;50.992;6.798;2023-03-03T14:40:22;64.47;;;29.95;;
2177;SDS011;1095;50.992;6.798;2023-03-03T14:43:07;63.95;;;30.25;;
2177;SDS011;1095;50.992;6.798;2023-03-03T14:49:02;57.22;;;26.67;;
2177;SDS011;1095;50.992;6.798;2023-03-03T14:51:45;53.05;;;26.42;;
2177;SDS011;1095;50.992;6.798;2023-03-03T14:54:23;57.88;;;28.73;;
2177;SDS011;1095;50.992;6.798;2023-03-03T14:57:17;57.28;;;28.20;;
2177;SDS011;1095;50.992;6.798;2023-03-03T14:59:58;61.08;;;27.67;;
2177;SDS011;1095;50.992;6.798;2023-03-03T15:02:41;59.30;;;27.55;;
2177;SDS011;1095;50.992;6.798;2023-03-03T15:05:47;57.28;;;27.80;;
2177;SDS011;1095;50.992;6.798;2023-03-03T15:08:34;64.68;;;29.30;;
2177;SDS011;1095;50.992;6.798;2023-03-03T15:14:03;66.43;;;29.00;;
2177;SDS011;1095;50.992;6.798;2023-03-03T15:16:45;52.67;;;26.08;;
2177;SDS011;1095;50.992;6.798;2023-03-03T15:22:21;57.55;;;26.38;;
2177;SDS011;1095;50.992;6.798;2023-03-03T15:25:04;59.65;;;26.88;;
2177;SDS011;1095;50.992;6.798;2023-03-03T15:27:41;54.35;;;25.92;;
2177;SDS011;1095;50.992;6.798;2023-03-03T16:38:39;83.00;;;36.85;;
2177;SDS011;1095;50.992;6.798;2023-03-03T16:41:09;95.30;;;41.97;;
2177;SDS011;1095;50.992;6.798;2023-03-03T16:44:18;84.07;;;41.80;;
2177;SDS011;1095;50.992;6.798;2023-03-03T16:46:59;91.55;;;43.00;;
2177;SDS011;1095;50.992;6.798;2023-03-03T16:49:42;87.03;;;41.00;;
2177;SDS011;1095;50.992;6.798;2023-03-03T16:52:22;89.63;;;41.88;;
2177;SDS011;1095;50.992;6.798;2023-03-03T16:54:57;89.28;;;43.72;;
2177;SDS011;1095;50.992;6.798;2023-03-03T17:00:01;93.70;;;42.00;;
2177;SDS011;1095;50.992;6.798;2023-03-03T17:02:50;87.80;;;41.75;;
2177;SDS011;1095;50.992;6.798;2023-03-03T17:05:27;92.63;;;43.75;;
2177;SDS011;1095;50.992;6.798;2023-03-03T17:08:04;92.38;;;43.53;;
2177;SDS011;1095;50.992;6.798;2023-03-03T17:10:44;95.65;;;45.60;;
2177;SDS011;1095;50.992;6.798;2023-03-03T17:16:21;104.10;;;45.95;;
2177;SDS011;1095;50.992;6.798;2023-03-03T17:18:59;99.75;;;44.83;;
2177;SDS011;1095;50.992;6.798;2023-03-03T17:21:40;101.77;;;47.43;;
2177;SDS011;1095;50.992;6.798;2023-03-03T17:24:21;96.43;;;45.75;;
2177;SDS011;1095;50.992;6.798;2023-03-03T17:27:05;105.93;;;47.17;;
2177;SDS011;1095;50.992;6.798;2023-03-03T17:29:45;106.13;;;47.97;;
2177;SDS011;1095;50.992;6.798;2023-03-03T17:32:24;106.32;;;47.83;;
2177;SDS011;1095;50.992;6.798;2023-03-03T17:38:09;108.47;;;47.33;;
2177;SDS011;1095;50.992;6.798;2023-03-03T17:41:10;100.38;;;47.08;;
2177;SDS011;1095;50.992;6.798;2023-03-03T17:44:18;101.78;;;46.72;;
2177;SDS011;1095;50.992;6.798;2023-03-03T17:46:55;111.82;;;49.72;;
2177;SDS011;1095;50.992;6.798;2023-03-03T17:49:35;105.25;;;47.50;;
2177;SDS011;1095;50.992;6.798;2023-03-03T17:52:24;111.47;;;49.60;;
2177;SDS011;1095;50.992;6.798;2023-03-03T17:55:15;110.75;;;48.33;;
2177;SDS011;1095;50.992;6.798;2023-03-03T17:57:59;113.03;;;49.38;;
2177;SDS011;1095;50.992;6.798;2023-03-03T18:00:45;109.32;;;50.22;;
2177;SDS011;1095;50.992;6.798;2023-03-03T18:03:27;111.22;;;49.70;;
2177;SDS011;1095;50.992;6.798;2023-03-03T18:09:31;105.30;;;50.40;;
2177;SDS011;1095;50.992;6.798;2023-03-03T18:12:14;104.93;;;48.47;;
2177;SDS011;1095;50.992;6.798;2023-03-03T18:14:52;115.75;;;50.75;;
2177;SDS011;1095;50.992;6.798;2023-03-03T18:17:38;112.30;;;50.97;;
2177;SDS011;1095;50.992;6.798;2023-03-03T18:20:41;117.45;;;52.75;;
2177;SDS011;1095;50.992;6.798;2023-03-03T18:23:41;107.85;;;50.90;;
2177;SDS011;1095;50.992;6.798;2023-03-03T18:26:28;117.80;;;51.90;;
2177;SDS011;1095;50.992;6.798;2023-03-03T18:29:08;122.95;;;54.88;;
2177;SDS011;1095;50.992;6.798;2023-03-03T18:34:46;127.85;;;53.47;;
2177;SDS011;1095;50.992;6.798;2023-03-03T18:40:20;132.50;;;57.00;;
2177;SDS011;1095;50.992;6.798;2023-03-03T18:42:55;127.55;;;56.28;;
2177;SDS011;1095;50.992;6.798;2023-03-03T18:48:15;139.10;;;55.60;;
2177;SDS011;1095;50.992;6.798;2023-03-03T18:51:08;137.35;;;59.22;;
2177;SDS011;1095;50.992;6.798;2023-03-03T18:53:35;140.93;;;62.20;;
2177;SDS011;1095;50.992;6.798;2023-03-03T18:56:03;131.73;;;58.55;;
2177;SDS011;1095;50.992;6.798;2023-03-03T18:58:37;144.27;;;63.20;;
2177;SDS011;1095;50.992;6.798;2023-03-03T19:01:13;133.18;;;59.53;;
2177;SDS011;1095;50.992;6.798;2023-03-03T19:04:07;143.40;;;59.40;;
2177;SDS011;1095;50.992;6.798;2023-03-03T19:09:52;143.15;;;58.30;;
2177;SDS011;1095;50.992;6.798;2023-03-03T19:12:41;134.63;;;55.97;;
2177;SDS011;1095;50.992;6.798;2023-03-03T19:18:19;141.45;;;59.08;;
2177;SDS011;1095;50.992;6.798;2023-03-03T19:20:52;126.63;;;55.53;;
2177;SDS011;1095;50.992;6.798;2023-03-03T19:23:45;132.52;;;56.20;;
2177;SDS011;1095;50.992;6.798;2023-03-03T19:32:20;132.70;;;54.40;;
2177;SDS011;1095;50.992;6.798;2023-03-03T19:35:07;139.40;;;56.45;;
2177;SDS011;1095;50.992;6.798;2023-03-03T19:37:47;138.55;;;58.15;;
2177;SDS011;1095;50.992;6.798;2023-03-03T19:40:26;135.10;;;56.67;;
2177;SDS011;1095;50.992;6.798;2023-03-03T19:43:01;143.57;;;57.83;;
2177;SDS011;1095;50.992;6.798;2023-03-03T19:45:42;134.75;;;57.08;;
2177;SDS011;1095;50.992;6.798;2023-03-03T19:48:19;139.07;;;58.90;;
2177;SDS011;1095;50.992;6.798;2023-03-03T19:50:51;133.40;;;59.00;;
2177;SDS011;1095;50.992;6.798;2023-03-03T19:53:27;125.55;;;55.45;;
2177;SDS011;1095;50.992;6.798;2023-03-03T19:56:08;127.30;;;56.08;;
2177;SDS011;1095;50.992;6.798;2023-03-03T19:58:43;133.30;;;56.10;;
2177;SDS011;1095;50.992;6.798;2023-03-03T20:01:19;142.20;;;58.08;;
2177;SDS011;1095;50.992;6.798;2023-03-03T20:03:53;123.75;;;56.17;;
2177;SDS011;1095;50.992;6.798;2023-03-03T20:06:32;126.85;;;55.92;;
2177;SDS011;1095;50.992;6.798;2023-03-03T20:09:07;127.80;;;55.13;;
2177;SDS011;1095;50.992;6.798;2023-03-03T20:15:21;118.55;;;55.30;;